createdAt,value
2022-11-01T00:01:47.370Z,59.87
2022-11-01T00:04:14.854Z,58.37
2022-11-01T00:06:43.662Z,49.87
2022-11-01T00:09:11.084Z,50.20
2022-11-01T00:11:38.637Z,54.33
2022-11-01T00:14:06.845Z,55.13
2022-11-01T00:16:34.591Z,52.60
2022-11-01T00:19:02.023Z,58.87
2022-11-01T00:21:29.523Z,57.10
2022-11-01T00:23:58.232Z,57.73
2022-11-01T00:26:26.063Z,51.00
2022-11-01T00:28:53.493Z,57.17
2022-11-01T00:31:22.370Z,53.53
2022-11-01T00:33:50.046Z,53.20
2022-11-01T00:36:17.509Z,49.83
2022-11-01T00:38:45.115Z,52.00
2022-11-01T00:41:15.589Z,48.87
2022-11-01T00:43:42.986Z,47.30
2022-11-01T00:46:11.197Z,48.97
2022-11-01T00:48:38.600Z,47.60
2022-11-01T00:51:06.370Z,49.67
2022-11-01T00:53:33.800Z,50.63
2022-11-01T00:56:02.230Z,43.73
2022-11-01T00:58:31.232Z,51.20
2022-11-01T01:00:59.364Z,46.17
2022-11-01T01:03:27.098Z,46.23
2022-11-01T01:05:55.569Z,49.37
2022-11-01T01:08:23.766Z,47.17
2022-11-01T01:10:51.277Z,52.00
2022-11-01T01:13:19.413Z,50.90
2022-11-01T01:15:48.626Z,51.83
2022-11-01T01:18:16.620Z,52.17
2022-11-01T01:20:44.021Z,53.90
2022-11-01T01:23:11.404Z,50.87
2022-11-01T01:25:40.283Z,52.63
2022-11-01T01:28:07.758Z,50.63
2022-11-01T01:30:35.360Z,53.93
2022-11-01T01:33:04.241Z,44.60
2022-11-01T01:35:31.635Z,51.83
2022-11-01T01:37:59.102Z,50.47
2022-11-01T01:40:26.786Z,50.83
2022-11-01T01:42:54.166Z,50.00
2022-11-01T01:45:31.570Z,50.47
2022-11-01T01:48:08.349Z,50.43
2022-11-01T01:50:41.127Z,44.93
2022-11-01T01:53:13.611Z,48.33
2022-11-01T01:55:43.744Z,49.47
2022-11-01T01:58:13.855Z,48.30
2022-11-01T02:00:44.333Z,45.03
2022-11-01T02:03:13.838Z,42.70
2022-11-01T02:05:47.033Z,45.20
2022-11-01T02:08:16.216Z,43.47
2022-11-01T02:10:44.145Z,44.93
2022-11-01T02:13:13.558Z,44.17
2022-11-01T02:15:55.664Z,48.90
2022-11-01T02:18:34.223Z,45.83
2022-11-01T02:21:25.079Z,46.37
2022-11-01T02:24:24.068Z,50.43
2022-11-01T02:27:03.851Z,48.23
2022-11-01T02:29:53.262Z,50.53
2022-11-01T02:32:27.527Z,49.00
2022-11-01T02:34:59.781Z,47.67
2022-11-01T02:37:30.698Z,47.60
2022-11-01T02:40:02.223Z,45.87
2022-11-01T02:42:32.430Z,48.93
2022-11-01T02:45:04.926Z,47.50
2022-11-01T02:47:34.496Z,48.10
2022-11-01T02:50:06.251Z,45.30
2022-11-01T02:52:38.009Z,49.13
2022-11-01T02:55:29.526Z,50.20
2022-11-01T02:57:59.948Z,49.17
2022-11-01T03:00:29.495Z,48.97
2022-11-01T03:03:07.111Z,48.57
2022-11-01T03:05:41.998Z,52.13
2022-11-01T03:08:13.233Z,50.87
2022-11-01T03:10:49.142Z,50.37
2022-11-01T03:13:36.010Z,49.13
2022-11-01T03:16:11.903Z,44.07
2022-11-01T03:18:52.108Z,49.80
2022-11-01T03:21:25.245Z,47.73
2022-11-01T03:23:57.668Z,47.53
2022-11-01T03:26:28.341Z,49.00
2022-11-01T03:29:00.146Z,47.23
2022-11-01T03:31:32.353Z,46.33
2022-11-01T03:34:03.830Z,46.03
2022-11-01T03:36:35.514Z,46.70
2022-11-01T03:39:07.732Z,45.67
2022-11-01T03:41:39.931Z,48.47
2022-11-01T03:44:08.126Z,43.60
2022-11-01T03:46:35.894Z,48.17
2022-11-01T03:49:04.643Z,40.27
2022-11-01T03:51:32.609Z,46.23
2022-11-01T03:54:00.369Z,46.97
2022-11-01T03:56:27.941Z,45.27
2022-11-01T03:58:55.497Z,42.30
2022-11-01T04:01:23.037Z,46.43
2022-11-01T04:03:50.567Z,46.30
2022-11-01T04:06:19.316Z,47.00
2022-11-01T04:08:46.721Z,45.33
2022-11-01T04:11:14.114Z,46.57
2022-11-01T04:13:43.225Z,42.37
2022-11-01T04:16:29.058Z,47.07
2022-11-01T04:19:14.506Z,46.83
2022-11-01T04:21:43.304Z,48.73
2022-11-01T04:24:11.347Z,44.23
2022-11-01T04:26:38.839Z,46.93
2022-11-01T04:29:06.237Z,49.00
2022-11-01T04:31:35.749Z,47.20
2022-11-01T04:34:04.602Z,47.17
2022-11-01T04:36:32.391Z,45.73
2022-11-01T04:39:01.169Z,45.87
2022-11-01T04:41:29.644Z,47.77
2022-11-01T04:43:58.782Z,41.00
2022-11-01T04:46:27.902Z,40.70
2022-11-01T04:48:55.299Z,43.57
2022-11-01T04:51:22.695Z,46.97
2022-11-01T04:53:50.175Z,43.80
2022-11-01T04:56:18.907Z,45.87
2022-11-01T04:58:46.793Z,47.77
2022-11-01T05:01:15.455Z,48.30
2022-11-01T05:03:43.010Z,46.90
2022-11-01T05:06:10.485Z,47.90
2022-11-01T05:08:37.913Z,46.73
2022-11-01T05:11:05.401Z,47.00
2022-11-01T05:13:34.543Z,47.17
2022-11-01T05:16:18.881Z,43.87
2022-11-01T05:18:47.336Z,46.30
2022-11-01T05:21:14.794Z,47.33
2022-11-01T05:23:42.184Z,47.07
2022-11-01T05:26:09.582Z,47.40
2022-11-01T05:28:38.585Z,43.17
2022-11-01T05:31:06.118Z,42.27
2022-11-01T05:33:33.533Z,46.07
2022-11-01T05:36:01.667Z,46.43
2022-11-01T05:38:29.088Z,44.37
2022-11-01T05:40:56.509Z,45.03
2022-11-01T05:43:23.973Z,45.80
2022-11-01T05:45:52.716Z,43.90
2022-11-01T05:48:20.150Z,47.13
2022-11-01T05:50:47.811Z,40.73
2022-11-01T05:53:15.774Z,43.87
2022-11-01T05:55:43.251Z,43.80
2022-11-01T05:58:10.669Z,47.63
2022-11-01T06:00:38.144Z,41.10
2022-11-01T06:03:07.418Z,44.37
2022-11-01T06:05:35.846Z,44.53
2022-11-01T06:08:04.138Z,44.83
2022-11-01T06:10:32.260Z,44.63
2022-11-01T06:13:00.071Z,45.33
2022-11-01T06:15:27.613Z,41.80
2022-11-01T06:17:59.194Z,40.57
2022-11-01T06:20:30.400Z,42.17
2022-11-01T06:22:58.193Z,39.20
2022-11-01T06:25:25.745Z,42.30
2022-11-01T06:27:54.216Z,42.67
2022-11-01T06:30:21.812Z,39.60
2022-11-01T06:32:49.230Z,40.53
2022-11-01T06:35:16.861Z,40.63
2022-11-01T06:37:45.560Z,47.83
2022-11-01T06:40:13.929Z,39.90
2022-11-01T06:42:46.500Z,40.83
2022-11-01T06:45:14.155Z,38.33
2022-11-01T06:47:41.581Z,38.00
2022-11-01T06:50:09.560Z,36.03
2022-11-01T06:52:36.967Z,39.53
2022-11-01T06:55:06.527Z,39.53
2022-11-01T06:57:33.936Z,35.23
2022-11-01T07:00:01.392Z,38.70
2022-11-01T07:02:30.043Z,35.67
2022-11-01T07:04:57.699Z,36.67
2022-11-01T07:07:25.177Z,37.33
2022-11-01T07:09:52.751Z,36.93
2022-11-01T07:12:21.489Z,38.70
2022-11-01T07:14:48.916Z,37.10
2022-11-01T07:17:16.301Z,38.13
2022-11-01T07:19:43.698Z,35.57
2022-11-01T07:22:11.095Z,37.17
2022-11-01T07:24:38.538Z,34.90
2022-11-01T07:27:05.899Z,34.47
2022-11-01T07:29:34.606Z,34.67
2022-11-01T07:32:02.077Z,34.70
2022-11-01T07:34:29.505Z,34.93
2022-11-01T07:36:56.868Z,36.70
2022-11-01T07:39:24.274Z,35.77
2022-11-01T07:41:54.071Z,34.77
2022-11-01T07:44:21.559Z,35.13
2022-11-01T07:46:50.364Z,32.10
2022-11-01T07:49:17.733Z,33.60
2022-11-01T07:51:45.123Z,35.80
2022-11-01T07:54:12.536Z,34.07
2022-11-01T07:56:39.958Z,34.83
2022-11-01T07:59:08.861Z,31.17
2022-11-01T08:01:36.805Z,31.77
2022-11-01T08:04:05.834Z,34.90
2022-11-01T08:06:33.271Z,34.30
2022-11-01T08:09:00.694Z,34.23
2022-11-01T08:11:28.945Z,30.47
2022-11-01T08:14:00.935Z,32.37
2022-11-01T08:16:32.724Z,32.50
2022-11-01T08:19:00.113Z,29.43
2022-11-01T08:21:28.981Z,30.20
2022-11-01T08:23:56.416Z,27.00
2022-11-01T08:26:24.058Z,28.20
2022-11-01T08:28:52.358Z,30.17
2022-11-01T08:31:19.815Z,28.17
2022-11-01T08:33:48.050Z,27.43
2022-11-01T08:36:17.327Z,26.27
2022-11-01T08:38:46.029Z,24.90
2022-11-01T08:41:13.520Z,25.73
2022-11-01T08:43:40.970Z,25.57
2022-11-01T08:46:10.576Z,26.20
2022-11-01T08:48:40.972Z,26.70
2022-11-01T08:51:08.888Z,26.40
2022-11-01T08:53:36.285Z,25.83
2022-11-01T08:56:05.692Z,22.00
2022-11-01T08:58:33.193Z,24.47
2022-11-01T09:01:00.625Z,25.40
2022-11-01T09:03:28.040Z,21.57
2022-11-01T09:05:57.766Z,22.73
2022-11-01T09:08:25.231Z,23.73
2022-11-01T09:10:52.608Z,22.90
2022-11-01T09:13:21.327Z,21.33
2022-11-01T09:15:48.699Z,22.60
2022-11-01T09:18:16.312Z,19.67
2022-11-01T09:20:43.730Z,21.27
2022-11-01T09:23:11.135Z,21.20
2022-11-01T09:25:38.613Z,21.30
2022-11-01T09:28:06.091Z,21.00
2022-11-01T09:30:34.839Z,21.87
2022-11-01T09:33:05.257Z,20.30
2022-11-01T09:35:33.243Z,18.20
2022-11-01T09:38:01.951Z,17.83
2022-11-01T09:40:32.899Z,19.83
2022-11-01T09:43:02.080Z,18.93
2022-11-01T09:45:33.558Z,20.97
2022-11-01T09:48:06.067Z,20.23
2022-11-01T09:50:35.511Z,18.90
2022-11-01T09:53:05.430Z,19.67
2022-11-01T09:55:42.551Z,19.57
2022-11-01T09:58:17.906Z,18.43
2022-11-01T10:00:54.793Z,16.80
2022-11-01T10:03:39.130Z,18.90
2022-11-01T10:06:15.394Z,19.63
2022-11-01T10:08:55.353Z,20.03
2022-11-01T10:11:42.728Z,17.43
2022-11-01T10:14:22.906Z,18.63
2022-11-01T10:16:58.743Z,18.50
2022-11-01T10:19:33.346Z,16.77
2022-11-01T10:22:08.483Z,20.20
2022-11-01T10:24:41.543Z,18.30
2022-11-01T10:27:16.441Z,17.57
2022-11-01T10:29:48.430Z,16.80
2022-11-01T10:32:29.210Z,18.10
2022-11-01T10:35:01.378Z,18.47
2022-11-01T10:37:34.521Z,18.43
2022-11-01T10:40:08.341Z,16.00
2022-11-01T10:42:37.775Z,17.03
2022-11-01T10:45:08.841Z,18.57
2022-11-01T10:47:36.317Z,19.63
2022-11-01T10:50:14.319Z,18.40
2022-11-01T10:52:48.588Z,19.07
2022-11-01T10:55:20.864Z,18.63
2022-11-01T10:57:53.207Z,17.70
2022-11-01T11:00:22.088Z,16.17
2022-11-01T11:02:53.974Z,18.50
2022-11-01T11:05:25.168Z,18.07
2022-11-01T11:07:52.635Z,16.50
2022-11-01T11:10:24.850Z,17.67
2022-11-01T11:12:57.225Z,18.87
2022-11-01T11:15:36.337Z,16.43
2022-11-01T11:18:08.270Z,17.03
2022-11-01T11:20:37.906Z,15.57
2022-11-01T11:23:10.940Z,16.33
2022-11-01T11:25:38.623Z,14.87
2022-11-01T11:28:06.670Z,13.83
2022-11-01T11:30:36.300Z,14.07
2022-11-01T11:33:04.259Z,13.60
2022-11-01T11:35:34.000Z,13.63
2022-11-01T11:38:06.176Z,14.97
2022-11-01T11:40:44.701Z,14.00
2022-11-01T11:43:24.551Z,12.73
2022-11-01T11:46:06.626Z,11.67
2022-11-01T11:48:34.190Z,11.27
2022-11-01T11:51:03.607Z,10.70
2022-11-01T11:53:33.421Z,10.83
2022-11-01T11:56:03.026Z,10.10
2022-11-01T11:58:35.506Z,10.30
2022-11-01T12:01:05.649Z,10.17
2022-11-01T12:03:44.620Z,10.30
2022-11-01T12:06:19.708Z,9.67
2022-11-01T12:08:50.052Z,11.03
2022-11-01T12:11:18.487Z,10.07
2022-11-01T12:13:47.226Z,9.27
2022-11-01T12:16:20.705Z,10.13
2022-11-01T12:18:52.202Z,10.13
2022-11-01T12:21:23.843Z,9.63
2022-11-01T12:23:57.346Z,10.10
2022-11-01T12:26:28.152Z,10.67
2022-11-01T12:29:11.120Z,9.58
2022-11-01T12:31:42.662Z,10.77
2022-11-01T12:34:19.561Z,11.60
2022-11-01T12:36:52.025Z,13.47
2022-11-01T12:39:34.438Z,11.50
2022-11-01T12:42:05.744Z,11.20
2022-11-01T12:44:36.974Z,14.23
2022-11-01T12:47:09.551Z,10.80
2022-11-01T12:49:46.082Z,12.07
2022-11-01T12:52:22.948Z,10.47
2022-11-01T12:55:01.432Z,10.37
2022-11-01T12:57:29.286Z,10.70
2022-11-01T12:59:56.937Z,9.63
2022-11-01T13:02:35.571Z,9.00
2022-11-01T13:05:06.655Z,9.73
2022-11-01T13:07:46.760Z,10.70
2022-11-01T13:10:23.107Z,10.00
2022-11-01T13:12:58.198Z,9.87
2022-11-01T13:15:32.610Z,10.60
2022-11-01T13:18:08.622Z,11.17
2022-11-01T13:20:51.085Z,10.07
2022-11-01T13:23:27.504Z,10.20
2022-11-01T13:26:03.296Z,9.90
2022-11-01T13:28:53.021Z,10.37
2022-11-01T13:31:31.445Z,9.30
2022-11-01T13:34:12.506Z,9.30
2022-11-01T13:36:47.290Z,8.47
2022-11-01T13:39:25.773Z,9.23
2022-11-01T13:42:02.543Z,9.87
2022-11-01T13:44:35.331Z,9.63
2022-11-01T13:47:28.845Z,8.53
2022-11-01T13:50:17.490Z,9.63
2022-11-01T13:52:51.425Z,9.50
2022-11-01T13:55:27.075Z,9.50
2022-11-01T13:57:56.092Z,9.30
2022-11-01T14:00:38.876Z,8.30
2022-11-01T14:03:19.983Z,9.13
2022-11-01T14:05:48.505Z,9.33
2022-11-01T14:08:28.532Z,9.50
2022-11-01T14:10:56.848Z,8.77
2022-11-01T14:13:36.822Z,8.27
2022-11-01T14:16:25.404Z,8.10
2022-11-01T14:19:19.132Z,8.73
2022-11-01T14:21:53.051Z,11.00
2022-11-01T14:24:32.043Z,9.93
2022-11-01T14:27:05.777Z,9.27
2022-11-01T14:29:36.542Z,10.07
2022-11-01T14:32:04.933Z,9.53
2022-11-01T14:34:36.384Z,8.30
2022-11-01T14:37:14.907Z,8.87
2022-11-01T14:39:48.956Z,9.17
2022-11-01T14:42:20.771Z,9.07
2022-11-01T14:44:52.625Z,11.83
2022-11-01T14:47:31.662Z,9.37
2022-11-01T14:50:02.913Z,9.80
2022-11-01T14:52:35.891Z,8.97
2022-11-01T14:55:13.486Z,9.07
2022-11-01T14:57:41.135Z,8.93
2022-11-01T15:00:32.958Z,7.43
2022-11-01T15:03:02.423Z,8.17
2022-11-01T15:05:30.191Z,8.83
2022-11-01T15:07:59.205Z,8.43
2022-11-01T15:10:27.658Z,11.77
2022-11-01T15:12:58.574Z,15.47
2022-11-01T15:15:29.528Z,9.80
2022-11-01T15:18:00.357Z,10.30
2022-11-01T15:20:36.321Z,10.93
2022-11-01T15:23:07.962Z,9.23
2022-11-01T15:25:35.407Z,8.70
2022-11-01T15:28:03.101Z,9.77
2022-11-01T15:30:34.709Z,8.13
2022-11-01T15:33:15.892Z,8.20
2022-11-01T15:35:43.782Z,9.40
2022-11-01T15:38:20.933Z,9.00
2022-11-01T15:40:50.305Z,10.70
2022-11-01T15:43:19.290Z,9.13
2022-11-01T15:45:52.869Z,8.83
2022-11-01T15:48:23.931Z,8.60
2022-11-01T15:50:54.194Z,9.60
2022-11-01T15:53:25.864Z,9.53
2022-11-01T15:55:56.895Z,9.27
2022-11-01T15:58:28.424Z,9.40
2022-11-01T16:01:00.802Z,9.63
2022-11-01T16:03:33.110Z,10.10
2022-11-01T16:06:05.072Z,10.07
2022-11-01T16:08:38.204Z,8.90
2022-11-01T16:11:06.238Z,9.60
2022-11-01T16:13:34.094Z,9.87
2022-11-01T16:16:05.175Z,8.70
2022-11-01T16:18:35.355Z,9.97
2022-11-01T16:21:04.779Z,10.70
2022-11-01T16:23:32.659Z,10.67
2022-11-01T16:26:06.098Z,10.30
2022-11-01T16:28:40.017Z,12.53
2022-11-01T16:31:20.923Z,8.30
2022-11-01T16:33:48.714Z,10.13
2022-11-01T16:36:37.053Z,10.17
2022-11-01T16:39:26.461Z,9.73
2022-11-01T16:41:54.030Z,9.53
2022-11-01T16:44:22.184Z,10.10
2022-11-01T16:46:51.241Z,10.00
2022-11-01T16:49:23.291Z,9.67
2022-11-01T16:51:52.300Z,10.30
2022-11-01T16:54:19.833Z,10.67
2022-11-01T16:56:49.467Z,9.63
2022-11-01T16:59:26.421Z,9.63
2022-11-01T17:01:57.549Z,10.47
2022-11-01T17:04:26.823Z,9.83
2022-11-01T17:06:55.475Z,10.27
2022-11-01T17:09:23.953Z,11.13
2022-11-01T17:11:53.648Z,10.10
2022-11-01T17:14:22.086Z,9.90
2022-11-01T17:16:51.281Z,9.97
2022-11-01T17:19:24.152Z,10.07
2022-11-01T17:21:52.804Z,10.53
2022-11-01T17:24:23.658Z,14.10
2022-11-01T17:26:52.639Z,14.70
2022-11-01T17:29:20.111Z,11.77
2022-11-01T17:31:48.026Z,11.00
2022-11-01T17:34:16.304Z,11.13
2022-11-01T17:36:49.297Z,11.43
2022-11-01T17:39:17.036Z,12.33
2022-11-01T17:41:44.606Z,12.27
2022-11-01T17:44:12.382Z,11.53
2022-11-01T17:46:40.135Z,14.00
2022-11-01T17:49:07.540Z,13.00
2022-11-01T17:51:35.045Z,11.77
2022-11-01T17:54:04.015Z,11.37
2022-11-01T17:56:32.041Z,11.00
2022-11-01T17:58:59.465Z,10.17
2022-11-01T18:01:27.067Z,10.50
2022-11-01T18:03:55.375Z,9.97
2022-11-01T18:06:23.012Z,11.13
2022-11-01T18:08:51.882Z,10.73
2022-11-01T18:11:35.666Z,10.07
2022-11-01T18:14:13.243Z,10.97
2022-11-01T18:16:47.341Z,10.50
2022-11-01T18:19:35.479Z,11.33
2022-11-01T18:22:13.265Z,10.57
2022-11-01T18:24:44.824Z,11.60
2022-11-01T18:27:16.218Z,11.77
2022-11-01T18:29:48.070Z,12.40
2022-11-01T18:32:20.722Z,11.60
2022-11-01T18:34:52.841Z,10.47
2022-11-01T18:37:27.682Z,12.53
2022-11-01T18:40:03.413Z,13.70
2022-11-01T18:42:32.312Z,13.00
2022-11-01T18:45:14.065Z,11.97
2022-11-01T18:47:48.761Z,12.90
2022-11-01T18:50:23.451Z,13.57
2022-11-01T18:53:01.754Z,13.77
2022-11-01T18:55:32.894Z,16.70
2022-11-01T18:58:13.274Z,16.97
2022-11-01T19:00:40.925Z,15.27
2022-11-01T19:03:12.397Z,14.63
2022-11-01T19:05:40.056Z,13.43
2022-11-01T19:08:23.298Z,12.60
2022-11-01T19:10:51.161Z,13.07
2022-11-01T19:13:26.569Z,13.97
2022-11-01T19:15:54.777Z,14.70
2022-11-01T19:18:24.226Z,15.40
2022-11-01T19:20:53.869Z,16.20
2022-11-01T19:23:25.073Z,14.80
2022-11-01T19:25:52.585Z,14.67
2022-11-01T19:28:28.649Z,13.83
2022-11-01T19:30:58.297Z,14.37
2022-11-01T19:33:34.194Z,12.97
2022-11-01T19:36:05.533Z,12.53
2022-11-01T19:38:32.981Z,12.87
2022-11-01T19:41:00.458Z,12.87
2022-11-01T19:43:29.359Z,13.63
2022-11-01T19:45:57.963Z,13.00
2022-11-01T19:48:28.437Z,13.47
2022-11-01T19:50:56.072Z,14.73
2022-11-01T19:53:28.479Z,15.33
2022-11-01T19:55:59.925Z,17.20
2022-11-01T19:58:35.729Z,19.90
2022-11-01T20:01:35.553Z,16.63
2022-11-01T20:04:05.346Z,17.30
2022-11-01T20:06:37.230Z,18.07
2022-11-01T20:09:10.092Z,15.77
2022-11-01T20:11:37.497Z,14.53
2022-11-01T20:14:06.237Z,15.00
2022-11-01T20:16:33.667Z,13.60
2022-11-01T20:19:01.102Z,14.13
2022-11-01T20:21:28.772Z,14.07
2022-11-01T20:23:56.193Z,15.27
2022-11-01T20:26:23.612Z,13.80
2022-11-01T20:28:51.047Z,14.77
2022-11-01T20:31:19.849Z,14.20
2022-11-01T20:33:47.468Z,15.07
2022-11-01T20:36:15.119Z,14.63
2022-11-01T20:38:42.528Z,14.97
2022-11-01T20:41:10.217Z,14.97
2022-11-01T20:43:37.605Z,15.43
2022-11-01T20:46:05.145Z,16.53
2022-11-01T20:48:34.102Z,16.80
2022-11-01T20:51:01.616Z,17.60
2022-11-01T20:53:30.018Z,18.47
2022-11-01T20:55:57.610Z,17.10
2022-11-01T20:58:25.092Z,17.47
2022-11-01T21:00:52.673Z,17.07
2022-11-01T21:03:21.837Z,17.97
2022-11-01T21:05:51.963Z,18.83
2022-11-01T21:08:23.315Z,19.17
2022-11-01T21:10:56.247Z,17.83
2022-11-01T21:13:27.038Z,15.90
2022-11-01T21:15:56.349Z,16.43
2022-11-01T21:18:33.463Z,18.00
2022-11-01T21:21:26.797Z,18.60
2022-11-01T21:23:54.971Z,19.47
2022-11-01T21:26:23.746Z,18.30
2022-11-01T21:28:53.338Z,19.87
2022-11-01T21:31:26.931Z,17.87
2022-11-01T21:33:56.699Z,17.57
2022-11-01T21:36:32.313Z,17.50
2022-11-01T21:39:01.240Z,16.23
2022-11-01T21:41:34.736Z,16.33
2022-11-01T21:44:16.908Z,16.57
2022-11-01T21:46:48.228Z,16.83
2022-11-01T21:49:25.148Z,18.53
2022-11-01T21:51:55.181Z,16.53
2022-11-01T21:54:23.041Z,16.70
2022-11-01T21:56:50.574Z,17.67
2022-11-01T21:59:18.005Z,17.63
2022-11-01T22:01:47.080Z,16.70
2022-11-01T22:04:15.914Z,16.13
2022-11-01T22:06:44.081Z,16.73
2022-11-01T22:09:12.855Z,16.47
2022-11-01T22:11:40.576Z,15.53
2022-11-01T22:14:08.880Z,16.93
2022-11-01T22:16:36.644Z,16.43
2022-11-01T22:19:04.837Z,14.47
2022-11-01T22:21:32.894Z,16.60
2022-11-01T22:24:00.382Z,13.23
2022-11-01T22:26:29.109Z,12.47
2022-11-01T22:28:56.614Z,13.43
2022-11-01T22:31:25.105Z,12.80
2022-11-01T22:33:53.657Z,13.23
2022-11-01T22:36:26.113Z,16.97
2022-11-01T22:38:56.234Z,13.00
2022-11-01T22:41:31.592Z,12.17
2022-11-01T22:44:05.144Z,13.83
2022-11-01T22:46:44.314Z,11.60
2022-11-01T22:49:16.904Z,11.40
2022-11-01T22:51:46.618Z,12.33
2022-11-01T22:54:25.442Z,11.53
2022-11-01T22:56:58.947Z,11.97
2022-11-01T22:59:33.179Z,11.50
2022-11-01T23:02:07.324Z,10.70
2022-11-01T23:04:35.251Z,11.00
2022-11-01T23:07:05.437Z,11.60
2022-11-01T23:09:32.803Z,10.80
2022-11-01T23:12:18.153Z,9.53
2022-11-01T23:14:46.984Z,9.30
2022-11-01T23:17:18.791Z,8.83
2022-11-01T23:19:46.303Z,9.40
2022-11-01T23:22:16.294Z,9.50
2022-11-01T23:24:43.707Z,10.33
2022-11-01T23:27:11.453Z,9.07
2022-11-01T23:29:38.887Z,10.27
2022-11-01T23:32:07.695Z,9.27
2022-11-01T23:34:35.278Z,9.53
2022-11-01T23:37:02.674Z,8.87
2022-11-01T23:39:34.948Z,9.90
2022-11-01T23:42:02.365Z,9.40
2022-11-01T23:44:31.722Z,9.67
2022-11-01T23:47:05.211Z,10.10
2022-11-01T23:49:35.642Z,9.90
2022-11-01T23:52:10.340Z,10.97
2022-11-01T23:54:42.217Z,9.53
2022-11-01T23:57:10.032Z,8.40
2022-11-01T23:59:37.798Z,11.60
